sensor_id;sensor_type;location;lat;lon;timestamp;P1;durP1;ratioP1;P2;durP2;ratioP2
9409;SDS011;4744;52.576;13.568;2023-03-23T00:00:59;2.65;;;1.80;;
9409;SDS011;4744;52.576;13.568;2023-03-23T00:03:27;3.10;;;2.28;;
9409;SDS011;4744;52.576;13.568;2023-03-23T00:05:58;1.92;;;1.80;;
9409;SDS011;4744;52.576;13.568;2023-03-23T00:08:29;1.90;;;1.80;;
9409;SDS011;4744;52.576;13.568;2023-03-23T00:10:56;2.35;;;1.90;;
9409;SDS011;4744;52.576;13.568;2023-03-23T00:13:27;2.55;;;1.80;;
9409;SDS011;4744;52.576;13.568;2023-03-23T00:15:55;3.20;;;1.90;;
9409;SDS011;4744;52.576;13.568;2023-03-23T00:18:23;1.45;;;1.42;;
9409;SDS011;4744;52.576;13.568;2023-03-23T00:20:51;1.85;;;1.75;;
9409;SDS011;4744;52.576;13.568;2023-03-23T00:23:20;1.98;;;1.65;;
9409;SDS011;4744;52.576;13.568;2023-03-23T00:25:49;5.18;;;1.83;;
9409;SDS011;4744;52.576;13.568;2023-03-23T00:28:19;1.70;;;1.60;;
9409;SDS011;4744;52.576;13.568;2023-03-23T00:30:53;1.60;;;1.50;;
9409;SDS011;4744;52.576;13.568;2023-03-23T00:33:21;1.80;;;1.70;;
9409;SDS011;4744;52.576;13.568;2023-03-23T00:35:49;2.92;;;1.80;;
9409;SDS011;4744;52.576;13.568;2023-03-23T00:38:17;1.70;;;1.60;;
9409;SDS011;4744;52.576;13.568;2023-03-23T00:40:46;3.60;;;1.83;;
9409;SDS011;4744;52.576;13.568;2023-03-23T00:43:13;2.03;;;1.77;;
9409;SDS011;4744;52.576;13.568;2023-03-23T00:45:41;1.58;;;1.48;;
9409;SDS011;4744;52.576;13.568;2023-03-23T00:48:09;1.65;;;1.55;;
9409;SDS011;4744;52.576;13.568;2023-03-23T00:50:37;2.20;;;1.67;;
9409;SDS011;4744;52.576;13.568;2023-03-23T00:53:04;2.35;;;1.70;;
9409;SDS011;4744;52.576;13.568;2023-03-23T00:55:32;2.38;;;1.60;;
9409;SDS011;4744;52.576;13.568;2023-03-23T00:57:59;1.92;;;1.80;;
9409;SDS011;4744;52.576;13.568;2023-03-23T01:00:26;2.72;;;1.85;;
9409;SDS011;4744;52.576;13.568;2023-03-23T01:02:53;2.00;;;1.90;;
9409;SDS011;4744;52.576;13.568;2023-03-23T01:05:21;2.03;;;1.85;;
9409;SDS011;4744;52.576;13.568;2023-03-23T01:07:48;1.80;;;1.70;;
9409;SDS011;4744;52.576;13.568;2023-03-23T01:10:14;2.47;;;1.80;;
9409;SDS011;4744;52.576;13.568;2023-03-23T01:12:44;2.78;;;1.60;;
9409;SDS011;4744;52.576;13.568;2023-03-23T01:15:15;2.75;;;2.00;;
9409;SDS011;4744;52.576;13.568;2023-03-23T01:17:43;1.90;;;1.73;;
9409;SDS011;4744;52.576;13.568;2023-03-23T01:20:11;2.05;;;1.85;;
9409;SDS011;4744;52.576;13.568;2023-03-23T01:22:39;2.33;;;1.85;;
9409;SDS011;4744;52.576;13.568;2023-03-23T01:25:07;1.70;;;1.60;;
9409;SDS011;4744;52.576;13.568;2023-03-23T01:27:35;1.73;;;1.48;;
9409;SDS011;4744;52.576;13.568;2023-03-23T01:30:05;2.70;;;1.70;;
9409;SDS011;4744;52.576;13.568;2023-03-23T01:32:33;1.90;;;1.70;;
9409;SDS011;4744;52.576;13.568;2023-03-23T01:35:00;2.65;;;2.00;;
9409;SDS011;4744;52.576;13.568;2023-03-23T01:37:27;3.25;;;1.90;;
9409;SDS011;4744;52.576;13.568;2023-03-23T01:39:55;3.75;;;2.00;;
9409;SDS011;4744;52.576;13.568;2023-03-23T01:42:23;1.92;;;1.70;;
9409;SDS011;4744;52.576;13.568;2023-03-23T01:47:59;3.30;;;1.83;;
9409;SDS011;4744;52.576;13.568;2023-03-23T01:50:31;1.88;;;1.63;;
9409;SDS011;4744;52.576;13.568;2023-03-23T01:53:04;2.13;;;1.90;;
9409;SDS011;4744;52.576;13.568;2023-03-23T01:55:34;1.50;;;1.40;;
9409;SDS011;4744;52.576;13.568;2023-03-23T01:58:04;2.33;;;1.77;;
9409;SDS011;4744;52.576;13.568;2023-03-23T02:00:33;3.20;;;1.88;;
9409;SDS011;4744;52.576;13.568;2023-03-23T02:03:02;2.03;;;1.60;;
9409;SDS011;4744;52.576;13.568;2023-03-23T02:05:30;2.00;;;1.80;;
9409;SDS011;4744;52.576;13.568;2023-03-23T02:08:03;1.90;;;1.80;;
9409;SDS011;4744;52.576;13.568;2023-03-23T02:10:34;1.92;;;1.80;;
9409;SDS011;4744;52.576;13.568;2023-03-23T02:13:02;1.88;;;1.75;;
9409;SDS011;4744;52.576;13.568;2023-03-23T02:15:34;2.00;;;1.80;;
9409;SDS011;4744;52.576;13.568;2023-03-23T02:18:13;1.63;;;1.52;;
9409;SDS011;4744;52.576;13.568;2023-03-23T02:20:58;2.22;;;2.00;;
9409;SDS011;4744;52.576;13.568;2023-03-23T02:23:52;2.33;;;1.77;;
9409;SDS011;4744;52.576;13.568;2023-03-23T02:26:47;3.22;;;1.90;;
9409;SDS011;4744;52.576;13.568;2023-03-23T02:32:31;2.70;;;1.92;;
9409;SDS011;4744;52.576;13.568;2023-03-23T02:35:24;2.00;;;1.85;;
9409;SDS011;4744;52.576;13.568;2023-03-23T02:37:56;1.98;;;1.80;;
9409;SDS011;4744;52.576;13.568;2023-03-23T02:40:27;2.13;;;1.85;;
9409;SDS011;4744;52.576;13.568;2023-03-23T02:42:58;2.28;;;1.77;;
9409;SDS011;4744;52.576;13.568;2023-03-23T02:45:27;2.17;;;1.70;;
9409;SDS011;4744;52.576;13.568;2023-03-23T02:47:56;2.55;;;1.50;;
9409;SDS011;4744;52.576;13.568;2023-03-23T02:50:25;2.28;;;1.77;;
9409;SDS011;4744;52.576;13.568;2023-03-23T02:52:54;2.60;;;1.67;;
9409;SDS011;4744;52.576;13.568;2023-03-23T02:55:23;2.15;;;1.83;;
9409;SDS011;4744;52.576;13.568;2023-03-23T02:57:53;2.45;;;2.13;;
9409;SDS011;4744;52.576;13.568;2023-03-23T03:00:21;2.38;;;1.90;;
9409;SDS011;4744;52.576;13.568;2023-03-23T03:02:48;1.63;;;1.52;;
9409;SDS011;4744;52.576;13.568;2023-03-23T03:05:21;2.03;;;1.77;;
9409;SDS011;4744;52.576;13.568;2023-03-23T03:07:59;2.00;;;1.90;;
9409;SDS011;4744;52.576;13.568;2023-03-23T03:10:34;2.10;;;1.90;;
9409;SDS011;4744;52.576;13.568;2023-03-23T03:13:10;2.25;;;1.85;;
9409;SDS011;4744;52.576;13.568;2023-03-23T03:15:44;2.13;;;1.67;;
9409;SDS011;4744;52.576;13.568;2023-03-23T03:18:18;1.98;;;1.80;;
9409;SDS011;4744;52.576;13.568;2023-03-23T03:20:53;2.20;;;1.80;;
9409;SDS011;4744;52.576;13.568;2023-03-23T03:23:24;2.10;;;1.90;;
9409;SDS011;4744;52.576;13.568;2023-03-23T03:25:53;4.05;;;1.80;;
9409;SDS011;4744;52.576;13.568;2023-03-23T03:28:22;2.50;;;2.00;;
9409;SDS011;4744;52.576;13.568;2023-03-23T03:30:52;2.72;;;2.22;;
9409;SDS011;4744;52.576;13.568;2023-03-23T03:33:21;3.58;;;1.67;;
9409;SDS011;4744;52.576;13.568;2023-03-23T03:35:52;2.50;;;1.90;;
9409;SDS011;4744;52.576;13.568;2023-03-23T03:38:21;1.90;;;1.80;;
9409;SDS011;4744;52.576;13.568;2023-03-23T03:40:48;2.17;;;1.98;;
9409;SDS011;4744;52.576;13.568;2023-03-23T03:43:16;1.92;;;1.70;;
9409;SDS011;4744;52.576;13.568;2023-03-23T03:45:43;2.05;;;1.95;;
9409;SDS011;4744;52.576;13.568;2023-03-23T03:48:10;1.92;;;1.77;;
9409;SDS011;4744;52.576;13.568;2023-03-23T03:50:37;2.20;;;1.95;;
9409;SDS011;4744;52.576;13.568;2023-03-23T03:53:06;1.85;;;1.73;;
9409;SDS011;4744;52.576;13.568;2023-03-23T03:55:33;2.28;;;2.00;;
9409;SDS011;4744;52.576;13.568;2023-03-23T03:58:04;2.33;;;2.13;;
9409;SDS011;4744;52.576;13.568;2023-03-23T04:00:32;1.75;;;1.63;;
9409;SDS011;4744;52.576;13.568;2023-03-23T04:02:59;4.18;;;2.38;;
9409;SDS011;4744;52.576;13.568;2023-03-23T04:05:26;2.75;;;2.35;;
9409;SDS011;4744;52.576;13.568;2023-03-23T04:07:54;2.83;;;2.15;;
9409;SDS011;4744;52.576;13.568;2023-03-23T04:10:28;4.60;;;2.30;;
9409;SDS011;4744;52.576;13.568;2023-03-23T04:12:56;3.35;;;2.53;;
9409;SDS011;4744;52.576;13.568;2023-03-23T04:15:24;3.08;;;2.30;;
9409;SDS011;4744;52.576;13.568;2023-03-23T04:17:51;2.70;;;2.15;;
9409;SDS011;4744;52.576;13.568;2023-03-23T04:20:18;2.72;;;2.20;;
9409;SDS011;4744;52.576;13.568;2023-03-23T04:22:45;6.65;;;2.53;;
9409;SDS011;4744;52.576;13.568;2023-03-23T04:25:15;3.58;;;2.50;;
9409;SDS011;4744;52.576;13.568;2023-03-23T04:27:47;2.97;;;2.20;;
9409;SDS011;4744;52.576;13.568;2023-03-23T04:30:17;3.35;;;2.40;;
9409;SDS011;4744;52.576;13.568;2023-03-23T04:32:45;3.70;;;2.20;;
9409;SDS011;4744;52.576;13.568;2023-03-23T04:35:15;2.67;;;2.45;;
9409;SDS011;4744;52.576;13.568;2023-03-23T04:37:44;3.53;;;2.50;;
9409;SDS011;4744;52.576;13.568;2023-03-23T04:40:11;3.67;;;2.92;;
9409;SDS011;4744;52.576;13.568;2023-03-23T04:42:39;3.35;;;2.40;;
9409;SDS011;4744;52.576;13.568;2023-03-23T04:45:12;4.07;;;2.50;;
9409;SDS011;4744;52.576;13.568;2023-03-23T04:47:40;2.53;;;2.22;;
9409;SDS011;4744;52.576;13.568;2023-03-23T04:50:18;2.47;;;1.92;;
9409;SDS011;4744;52.576;13.568;2023-03-23T04:52:49;4.15;;;2.38;;
9409;SDS011;4744;52.576;13.568;2023-03-23T04:55:16;2.22;;;1.92;;
9409;SDS011;4744;52.576;13.568;2023-03-23T04:57:44;2.30;;;2.10;;
9409;SDS011;4744;52.576;13.568;2023-03-23T05:00:14;2.65;;;2.15;;
9409;SDS011;4744;52.576;13.568;2023-03-23T05:02:42;3.70;;;2.67;;
9409;SDS011;4744;52.576;13.568;2023-03-23T05:05:10;3.95;;;2.20;;
9409;SDS011;4744;52.576;13.568;2023-03-23T05:07:38;4.75;;;2.53;;
9409;SDS011;4744;52.576;13.568;2023-03-23T05:10:06;2.83;;;2.30;;
9409;SDS011;4744;52.576;13.568;2023-03-23T05:12:35;2.42;;;2.20;;
9409;SDS011;4744;52.576;13.568;2023-03-23T05:15:02;3.40;;;2.28;;
9409;SDS011;4744;52.576;13.568;2023-03-23T05:17:32;2.30;;;2.10;;
9409;SDS011;4744;52.576;13.568;2023-03-23T05:19:59;3.03;;;2.10;;
9409;SDS011;4744;52.576;13.568;2023-03-23T05:22:30;2.20;;;2.00;;
9409;SDS011;4744;52.576;13.568;2023-03-23T05:24:57;2.17;;;2.05;;
9409;SDS011;4744;52.576;13.568;2023-03-23T05:27:24;3.35;;;2.10;;
9409;SDS011;4744;52.576;13.568;2023-03-23T05:29:55;2.50;;;2.30;;
9409;SDS011;4744;52.576;13.568;2023-03-23T05:32:23;5.22;;;2.42;;
9409;SDS011;4744;52.576;13.568;2023-03-23T05:34:55;2.30;;;2.10;;
9409;SDS011;4744;52.576;13.568;2023-03-23T05:37:22;2.45;;;2.25;;
9409;SDS011;4744;52.576;13.568;2023-03-23T05:39:49;2.30;;;2.10;;
9409;SDS011;4744;52.576;13.568;2023-03-23T05:42:18;4.80;;;2.60;;
9409;SDS011;4744;52.576;13.568;2023-03-23T05:44:45;3.22;;;2.53;;
9409;SDS011;4744;52.576;13.568;2023-03-23T05:47:13;4.20;;;2.30;;
9409;SDS011;4744;52.576;13.568;2023-03-23T05:49:40;3.13;;;2.83;;
9409;SDS011;4744;52.576;13.568;2023-03-23T05:52:09;2.92;;;2.40;;
9409;SDS011;4744;52.576;13.568;2023-03-23T05:54:36;2.78;;;2.50;;
9409;SDS011;4744;52.576;13.568;2023-03-23T05:57:03;2.40;;;2.20;;
9409;SDS011;4744;52.576;13.568;2023-03-23T05:59:30;2.50;;;2.30;;
9409;SDS011;4744;52.576;13.568;2023-03-23T06:01:58;2.65;;;2.20;;
9409;SDS011;4744;52.576;13.568;2023-03-23T06:04:25;2.70;;;2.08;;
9409;SDS011;4744;52.576;13.568;2023-03-23T06:06:52;2.53;;;2.30;;
9409;SDS011;4744;52.576;13.568;2023-03-23T06:09:21;2.28;;;2.08;;
9409;SDS011;4744;52.576;13.568;2023-03-23T06:11:50;2.20;;;2.00;;
9409;SDS011;4744;52.576;13.568;2023-03-23T06:14:17;2.22;;;2.03;;
9409;SDS011;4744;52.576;13.568;2023-03-23T06:16:44;4.53;;;2.10;;
9409;SDS011;4744;52.576;13.568;2023-03-23T06:19:10;2.28;;;2.08;;
9409;SDS011;4744;52.576;13.568;2023-03-23T06:21:37;3.47;;;1.95;;
9409;SDS011;4744;52.576;13.568;2023-03-23T06:24:05;3.17;;;2.25;;
9409;SDS011;4744;52.576;13.568;2023-03-23T06:26:33;2.03;;;1.92;;
9409;SDS011;4744;52.576;13.568;2023-03-23T06:29:02;2.85;;;2.08;;
9409;SDS011;4744;52.576;13.568;2023-03-23T06:31:35;2.83;;;2.13;;
9409;SDS011;4744;52.576;13.568;2023-03-23T06:34:04;2.30;;;2.17;;
9409;SDS011;4744;52.576;13.568;2023-03-23T06:36:31;3.22;;;2.15;;
9409;SDS011;4744;52.576;13.568;2023-03-23T06:38:57;3.88;;;2.20;;
9409;SDS011;4744;52.576;13.568;2023-03-23T06:41:24;2.40;;;2.20;;
9409;SDS011;4744;52.576;13.568;2023-03-23T06:43:53;2.33;;;1.83;;
9409;SDS011;4744;52.576;13.568;2023-03-23T06:46:19;2.28;;;1.90;;
9409;SDS011;4744;52.576;13.568;2023-03-23T06:48:46;2.55;;;1.90;;
9409;SDS011;4744;52.576;13.568;2023-03-23T06:51:14;1.98;;;1.63;;
9409;SDS011;4744;52.576;13.568;2023-03-23T06:53:41;2.65;;;1.85;;
9409;SDS011;4744;52.576;13.568;2023-03-23T06:56:08;2.05;;;1.95;;
9409;SDS011;4744;52.576;13.568;2023-03-23T06:58:36;2.78;;;2.30;;
9409;SDS011;4744;52.576;13.568;2023-03-23T07:01:05;2.30;;;1.83;;
9409;SDS011;4744;52.576;13.568;2023-03-23T07:03:33;3.63;;;1.77;;
9409;SDS011;4744;52.576;13.568;2023-03-23T07:06:00;2.67;;;1.95;;
9409;SDS011;4744;52.576;13.568;2023-03-23T07:08:28;2.20;;;2.00;;
9409;SDS011;4744;52.576;13.568;2023-03-23T07:10:56;3.67;;;2.00;;
9409;SDS011;4744;52.576;13.568;2023-03-23T07:13:23;2.75;;;1.90;;
9409;SDS011;4744;52.576;13.568;2023-03-23T07:15:50;2.05;;;1.80;;
9409;SDS011;4744;52.576;13.568;2023-03-23T07:18:18;2.00;;;1.73;;
9409;SDS011;4744;52.576;13.568;2023-03-23T07:20:46;3.53;;;2.00;;
9409;SDS011;4744;52.576;13.568;2023-03-23T07:23:14;2.03;;;1.77;;
9409;SDS011;4744;52.576;13.568;2023-03-23T07:25:42;3.05;;;2.08;;
9409;SDS011;4744;52.576;13.568;2023-03-23T07:28:09;3.10;;;2.30;;
9409;SDS011;4744;52.576;13.568;2023-03-23T07:30:37;2.72;;;2.03;;
9409;SDS011;4744;52.576;13.568;2023-03-23T07:33:04;4.97;;;2.53;;
9409;SDS011;4744;52.576;13.568;2023-03-23T07:35:34;3.13;;;2.20;;
9409;SDS011;4744;52.576;13.568;2023-03-23T07:38:01;5.35;;;2.88;;
9409;SDS011;4744;52.576;13.568;2023-03-23T07:40:29;3.22;;;2.40;;
9409;SDS011;4744;52.576;13.568;2023-03-23T07:42:58;2.53;;;1.98;;
9409;SDS011;4744;52.576;13.568;2023-03-23T07:45:25;3.95;;;2.28;;
9409;SDS011;4744;52.576;13.568;2023-03-23T07:47:53;4.35;;;2.50;;
9409;SDS011;4744;52.576;13.568;2023-03-23T07:50:20;4.18;;;2.50;;
9409;SDS011;4744;52.576;13.568;2023-03-23T07:52:50;4.53;;;2.75;;
9409;SDS011;4744;52.576;13.568;2023-03-23T07:55:20;3.67;;;2.35;;
9409;SDS011;4744;52.576;13.568;2023-03-23T07:57:47;3.50;;;2.72;;
9409;SDS011;4744;52.576;13.568;2023-03-23T08:00:15;2.60;;;2.40;;
9409;SDS011;4744;52.576;13.568;2023-03-23T08:02:43;5.25;;;2.25;;
9409;SDS011;4744;52.576;13.568;2023-03-23T08:05:11;3.55;;;2.10;;
9409;SDS011;4744;52.576;13.568;2023-03-23T08:07:39;2.35;;;2.15;;
9409;SDS011;4744;52.576;13.568;2023-03-23T08:10:09;2.78;;;1.90;;
9409;SDS011;4744;52.576;13.568;2023-03-23T08:12:37;2.47;;;2.28;;
9409;SDS011;4744;52.576;13.568;2023-03-23T08:15:04;3.83;;;2.40;;
9409;SDS011;4744;52.576;13.568;2023-03-23T08:17:32;2.38;;;2.13;;
9409;SDS011;4744;52.576;13.568;2023-03-23T08:20:00;2.80;;;2.00;;
9409;SDS011;4744;52.576;13.568;2023-03-23T08:22:35;3.80;;;2.30;;
9409;SDS011;4744;52.576;13.568;2023-03-23T08:25:03;3.60;;;2.20;;
9409;SDS011;4744;52.576;13.568;2023-03-23T08:27:32;3.28;;;2.38;;
9409;SDS011;4744;52.576;13.568;2023-03-23T08:30:00;2.40;;;2.20;;
9409;SDS011;4744;52.576;13.568;2023-03-23T08:32:27;2.95;;;2.20;;
9409;SDS011;4744;52.576;13.568;2023-03-23T08:34:54;2.83;;;2.10;;
9409;SDS011;4744;52.576;13.568;2023-03-23T08:37:21;3.75;;;2.20;;
9409;SDS011;4744;52.576;13.568;2023-03-23T08:39:50;3.47;;;2.53;;
9409;SDS011;4744;52.576;13.568;2023-03-23T08:42:18;2.47;;;2.28;;
9409;SDS011;4744;52.576;13.568;2023-03-23T08:44:46;2.97;;;1.92;;
9409;SDS011;4744;52.576;13.568;2023-03-23T08:47:13;2.63;;;2.42;;
9409;SDS011;4744;52.576;13.568;2023-03-23T08:49:41;2.10;;;2.00;;
9409;SDS011;4744;52.576;13.568;2023-03-23T08:52:08;4.18;;;2.50;;
9409;SDS011;4744;52.576;13.568;2023-03-23T08:54:35;2.95;;;2.40;;
9409;SDS011;4744;52.576;13.568;2023-03-23T08:57:03;2.63;;;2.10;;
9409;SDS011;4744;52.576;13.568;2023-03-23T08:59:30;2.65;;;2.15;;
9409;SDS011;4744;52.576;13.568;2023-03-23T09:01:58;3.92;;;2.28;;
9409;SDS011;4744;52.576;13.568;2023-03-23T09:04:25;2.35;;;2.15;;
9409;SDS011;4744;52.576;13.568;2023-03-23T09:06:53;2.15;;;2.03;;
9409;SDS011;4744;52.576;13.568;2023-03-23T09:09:22;3.08;;;1.75;;
9409;SDS011;4744;52.576;13.568;2023-03-23T09:11:49;2.13;;;1.98;;
9409;SDS011;4744;52.576;13.568;2023-03-23T09:14:15;3.63;;;2.25;;
9409;SDS011;4744;52.576;13.568;2023-03-23T09:16:42;3.30;;;2.05;;
9409;SDS011;4744;52.576;13.568;2023-03-23T09:19:11;3.10;;;2.00;;
9409;SDS011;4744;52.576;13.568;2023-03-23T09:21:38;2.53;;;1.63;;
9409;SDS011;4744;52.576;13.568;2023-03-23T09:24:05;1.77;;;1.67;;
9409;SDS011;4744;52.576;13.568;2023-03-23T09:26:32;2.15;;;1.80;;
9409;SDS011;4744;52.576;13.568;2023-03-23T09:28:59;2.15;;;1.92;;
9409;SDS011;4744;52.576;13.568;2023-03-23T09:31:26;3.55;;;2.00;;
9409;SDS011;4744;52.576;13.568;2023-03-23T09:33:53;2.05;;;1.90;;
9409;SDS011;4744;52.576;13.568;2023-03-23T09:36:23;2.03;;;1.80;;
9409;SDS011;4744;52.576;13.568;2023-03-23T09:38:51;2.33;;;2.13;;
9409;SDS011;4744;52.576;13.568;2023-03-23T09:41:35;2.88;;;2.08;;
9409;SDS011;4744;52.576;13.568;2023-03-23T09:44:16;1.73;;;1.63;;
9409;SDS011;4744;52.576;13.568;2023-03-23T09:46:52;2.65;;;1.77;;
9409;SDS011;4744;52.576;13.568;2023-03-23T09:49:25;3.67;;;2.00;;
9409;SDS011;4744;52.576;13.568;2023-03-23T09:52:00;1.90;;;1.80;;
9409;SDS011;4744;52.576;13.568;2023-03-23T09:54:30;2.05;;;1.85;;
9409;SDS011;4744;52.576;13.568;2023-03-23T09:57:01;2.03;;;1.85;;
9409;SDS011;4744;52.576;13.568;2023-03-23T09:59:30;2.97;;;1.80;;
9409;SDS011;4744;52.576;13.568;2023-03-23T10:02:04;2.95;;;2.00;;
9409;SDS011;4744;52.576;13.568;2023-03-23T10:04:41;2.22;;;1.70;;
9409;SDS011;4744;52.576;13.568;2023-03-23T10:07:15;2.70;;;1.80;;
9409;SDS011;4744;52.576;13.568;2023-03-23T10:09:47;1.60;;;1.50;;
9409;SDS011;4744;52.576;13.568;2023-03-23T10:12:19;1.73;;;1.55;;
9409;SDS011;4744;52.576;13.568;2023-03-23T10:17:45;2.45;;;1.73;;
9409;SDS011;4744;52.576;13.568;2023-03-23T10:20:21;2.55;;;1.75;;
9409;SDS011;4744;52.576;13.568;2023-03-23T10:23:00;1.50;;;1.40;;
9409;SDS011;4744;52.576;13.568;2023-03-23T10:25:34;2.53;;;1.63;;
9409;SDS011;4744;52.576;13.568;2023-03-23T10:28:04;4.55;;;1.77;;
9409;SDS011;4744;52.576;13.568;2023-03-23T10:30:37;1.50;;;1.40;;
9409;SDS011;4744;52.576;13.568;2023-03-23T10:33:10;2.30;;;1.52;;
9409;SDS011;4744;52.576;13.568;2023-03-23T10:35:43;1.50;;;1.40;;
9409;SDS011;4744;52.576;13.568;2023-03-23T10:38:15;1.65;;;1.52;;
9409;SDS011;4744;52.576;13.568;2023-03-23T10:40:48;1.70;;;1.60;;
9409;SDS011;4744;52.576;13.568;2023-03-23T10:43:18;1.83;;;1.50;;
9409;SDS011;4744;52.576;13.568;2023-03-23T10:45:47;1.80;;;1.58;;
9409;SDS011;4744;52.576;13.568;2023-03-23T10:48:19;1.25;;;1.15;;
9409;SDS011;4744;52.576;13.568;2023-03-23T10:50:49;2.08;;;1.48;;
9409;SDS011;4744;52.576;13.568;2023-03-23T10:53:22;1.60;;;1.50;;
9409;SDS011;4744;52.576;13.568;2023-03-23T10:55:53;1.70;;;1.60;;
9409;SDS011;4744;52.576;13.568;2023-03-23T10:58:23;2.08;;;1.40;;
9409;SDS011;4744;52.576;13.568;2023-03-23T11:00:53;1.40;;;1.30;;
9409;SDS011;4744;52.576;13.568;2023-03-23T11:03:23;1.40;;;1.30;;
9409;SDS011;4744;52.576;13.568;2023-03-23T11:05:55;2.17;;;1.40;;
9409;SDS011;4744;52.576;13.568;2023-03-23T11:08:31;1.27;;;1.20;;
9409;SDS011;4744;52.576;13.568;2023-03-23T11:11:08;1.35;;;1.27;;
9409;SDS011;4744;52.576;13.568;2023-03-23T11:13:38;2.10;;;1.40;;
9409;SDS011;4744;52.576;13.568;2023-03-23T11:16:08;1.55;;;1.40;;
9409;SDS011;4744;52.576;13.568;2023-03-23T11:18:37;1.90;;;1.45;;
9409;SDS011;4744;52.576;13.568;2023-03-23T11:21:05;1.42;;;1.33;;
9409;SDS011;4744;52.576;13.568;2023-03-23T11:23:36;1.50;;;1.40;;
9409;SDS011;4744;52.576;13.568;2023-03-23T11:26:09;1.85;;;1.48;;
9409;SDS011;4744;52.576;13.568;2023-03-23T11:28:42;1.38;;;1.27;;
9409;SDS011;4744;52.576;13.568;2023-03-23T11:31:12;2.33;;;1.50;;
9409;SDS011;4744;52.576;13.568;2023-03-23T11:33:46;2.55;;;1.40;;
9409;SDS011;4744;52.576;13.568;2023-03-23T11:36:17;1.60;;;1.50;;
9409;SDS011;4744;52.576;13.568;2023-03-23T11:38:46;1.33;;;1.30;;
9409;SDS011;4744;52.576;13.568;2023-03-23T11:41:17;1.95;;;1.38;;
9409;SDS011;4744;52.576;13.568;2023-03-23T11:43:46;1.60;;;1.30;;
9409;SDS011;4744;52.576;13.568;2023-03-23T11:46:18;1.30;;;1.20;;
9409;SDS011;4744;52.576;13.568;2023-03-23T11:48:56;3.03;;;1.52;;
9409;SDS011;4744;52.576;13.568;2023-03-23T11:51:27;1.92;;;1.42;;
9409;SDS011;4744;52.576;13.568;2023-03-23T11:54:02;1.65;;;1.38;;
9409;SDS011;4744;52.576;13.568;2023-03-23T11:56:35;1.40;;;1.30;;
9409;SDS011;4744;52.576;13.568;2023-03-23T11:59:08;1.50;;;1.40;;
9409;SDS011;4744;52.576;13.568;2023-03-23T12:01:43;1.45;;;1.30;;
9409;SDS011;4744;52.576;13.568;2023-03-23T12:07:30;1.65;;;1.52;;
9409;SDS011;4744;52.576;13.568;2023-03-23T12:10:10;2.05;;;1.63;;
9409;SDS011;4744;52.576;13.568;2023-03-23T12:12:50;2.03;;;1.40;;
9409;SDS011;4744;52.576;13.568;2023-03-23T12:15:28;1.45;;;1.30;;
9409;SDS011;4744;52.576;13.568;2023-03-23T12:18:03;1.92;;;1.30;;
9409;SDS011;4744;52.576;13.568;2023-03-23T12:20:42;1.80;;;1.50;;
9409;SDS011;4744;52.576;13.568;2023-03-23T12:23:21;1.08;;;1.08;;
9409;SDS011;4744;52.576;13.568;2023-03-23T12:28:53;1.73;;;1.50;;
9409;SDS011;4744;52.576;13.568;2023-03-23T12:31:33;1.40;;;1.30;;
9409;SDS011;4744;52.576;13.568;2023-03-23T12:34:10;2.30;;;1.60;;
9409;SDS011;4744;52.576;13.568;2023-03-23T12:36:50;1.58;;;1.30;;
9409;SDS011;4744;52.576;13.568;2023-03-23T12:39:39;2.70;;;1.45;;
9409;SDS011;4744;52.576;13.568;2023-03-23T12:42:21;1.40;;;1.30;;
9409;SDS011;4744;52.576;13.568;2023-03-23T12:44:56;1.50;;;1.40;;
9409;SDS011;4744;52.576;13.568;2023-03-23T12:47:31;3.25;;;1.30;;
9409;SDS011;4744;52.576;13.568;2023-03-23T12:50:05;2.45;;;1.73;;
9409;SDS011;4744;52.576;13.568;2023-03-23T12:52:39;2.50;;;1.35;;
9409;SDS011;4744;52.576;13.568;2023-03-23T12:55:14;1.83;;;1.70;;
9409;SDS011;4744;52.576;13.568;2023-03-23T12:57:46;3.30;;;1.50;;
9409;SDS011;4744;52.576;13.568;2023-03-23T13:00:20;2.10;;;1.60;;
9409;SDS011;4744;52.576;13.568;2023-03-23T13:02:51;2.35;;;1.45;;
9409;SDS011;4744;52.576;13.568;2023-03-23T13:08:11;3.60;;;1.50;;
9409;SDS011;4744;52.576;13.568;2023-03-23T13:10:42;1.60;;;1.50;;
9409;SDS011;4744;52.576;13.568;2023-03-23T13:13:16;1.40;;;1.30;;
9409;SDS011;4744;52.576;13.568;2023-03-23T13:15:48;2.45;;;1.50;;
9409;SDS011;4744;52.576;13.568;2023-03-23T13:18:28;1.38;;;1.27;;
9409;SDS011;4744;52.576;13.568;2023-03-23T13:21:12;2.63;;;1.35;;
9409;SDS011;4744;52.576;13.568;2023-03-23T13:23:46;2.00;;;1.48;;
9409;SDS011;4744;52.576;13.568;2023-03-23T13:26:17;1.63;;;1.38;;
9409;SDS011;4744;52.576;13.568;2023-03-23T13:28:58;1.50;;;1.40;;
9409;SDS011;4744;52.576;13.568;2023-03-23T13:31:30;2.05;;;1.38;;
9409;SDS011;4744;52.576;13.568;2023-03-23T13:34:02;1.85;;;1.58;;
9409;SDS011;4744;52.576;13.568;2023-03-23T13:36:33;2.10;;;1.50;;
9409;SDS011;4744;52.576;13.568;2023-03-23T13:39:03;1.90;;;1.48;;
9409;SDS011;4744;52.576;13.568;2023-03-23T13:41:34;1.30;;;1.20;;
9409;SDS011;4744;52.576;13.568;2023-03-23T13:44:19;1.50;;;1.40;;
9409;SDS011;4744;52.576;13.568;2023-03-23T13:47:06;1.50;;;1.40;;
9409;SDS011;4744;52.576;13.568;2023-03-23T13:49:45;1.50;;;1.40;;
9409;SDS011;4744;52.576;13.568;2023-03-23T13:52:16;2.13;;;1.35;;
9409;SDS011;4744;52.576;13.568;2023-03-23T13:54:48;1.63;;;1.30;;
9409;SDS011;4744;52.576;13.568;2023-03-23T13:57:19;3.47;;;1.63;;
9409;SDS011;4744;52.576;13.568;2023-03-23T13:59:56;3.33;;;1.30;;
9409;SDS011;4744;52.576;13.568;2023-03-23T14:02:29;2.28;;;1.40;;
9409;SDS011;4744;52.576;13.568;2023-03-23T14:05:08;1.65;;;1.50;;
9409;SDS011;4744;52.576;13.568;2023-03-23T14:07:51;1.33;;;1.23;;
9409;SDS011;4744;52.576;13.568;2023-03-23T14:10:20;3.33;;;1.50;;
9409;SDS011;4744;52.576;13.568;2023-03-23T14:12:49;1.50;;;1.40;;
9409;SDS011;4744;52.576;13.568;2023-03-23T14:15:20;2.58;;;1.50;;
9409;SDS011;4744;52.576;13.568;2023-03-23T14:17:47;2.75;;;1.80;;
9409;SDS011;4744;52.576;13.568;2023-03-23T14:20:19;1.70;;;1.25;;
9409;SDS011;4744;52.576;13.568;2023-03-23T14:22:53;2.17;;;1.30;;
9409;SDS011;4744;52.576;13.568;2023-03-23T14:25:21;1.73;;;1.50;;
9409;SDS011;4744;52.576;13.568;2023-03-23T14:27:50;1.55;;;1.30;;
9409;SDS011;4744;52.576;13.568;2023-03-23T14:30:19;2.70;;;1.30;;
9409;SDS011;4744;52.576;13.568;2023-03-23T14:32:50;1.70;;;1.40;;
9409;SDS011;4744;52.576;13.568;2023-03-23T14:35:19;2.47;;;1.20;;
9409;SDS011;4744;52.576;13.568;2023-03-23T14:37:49;3.08;;;1.15;;
9409;SDS011;4744;52.576;13.568;2023-03-23T14:40:17;2.58;;;1.20;;
9409;SDS011;4744;52.576;13.568;2023-03-23T14:42:45;3.25;;;1.30;;
9409;SDS011;4744;52.576;13.568;2023-03-23T14:45:14;1.75;;;1.40;;
9409;SDS011;4744;52.576;13.568;2023-03-23T14:47:44;2.67;;;1.23;;
9409;SDS011;4744;52.576;13.568;2023-03-23T14:50:23;1.20;;;1.10;;
9409;SDS011;4744;52.576;13.568;2023-03-23T14:52:55;1.83;;;1.38;;
9409;SDS011;4744;52.576;13.568;2023-03-23T14:55:24;1.50;;;1.20;;
9409;SDS011;4744;52.576;13.568;2023-03-23T14:57:53;1.52;;;1.17;;
9409;SDS011;4744;52.576;13.568;2023-03-23T15:00:22;2.92;;;1.58;;
9409;SDS011;4744;52.576;13.568;2023-03-23T15:02:56;1.30;;;1.20;;
9409;SDS011;4744;52.576;13.568;2023-03-23T15:05:26;2.13;;;1.45;;
9409;SDS011;4744;52.576;13.568;2023-03-23T15:07:56;2.22;;;1.30;;
9409;SDS011;4744;52.576;13.568;2023-03-23T15:10:28;1.35;;;1.27;;
9409;SDS011;4744;52.576;13.568;2023-03-23T15:12:56;3.35;;;1.20;;
9409;SDS011;4744;52.576;13.568;2023-03-23T15:15:24;3.78;;;1.17;;
9409;SDS011;4744;52.576;13.568;2023-03-23T15:17:54;2.92;;;1.48;;
9409;SDS011;4744;52.576;13.568;2023-03-23T15:20:24;1.33;;;1.20;;
9409;SDS011;4744;52.576;13.568;2023-03-23T15:22:52;2.17;;;1.40;;
9409;SDS011;4744;52.576;13.568;2023-03-23T15:25:20;1.88;;;1.65;;
9409;SDS011;4744;52.576;13.568;2023-03-23T15:27:49;2.53;;;1.20;;
9409;SDS011;4744;52.576;13.568;2023-03-23T15:30:27;2.78;;;1.38;;
9409;SDS011;4744;52.576;13.568;2023-03-23T15:33:01;1.52;;;1.42;;
9409;SDS011;4744;52.576;13.568;2023-03-23T15:35:32;1.92;;;1.65;;
9409;SDS011;4744;52.576;13.568;2023-03-23T15:38:01;2.15;;;1.40;;